createdAt,value
2022-08-20T00:03:02.845Z,8.53
2022-08-20T00:08:07.909Z,11.27
2022-08-20T00:13:14.002Z,9.75
2022-08-20T00:18:21.893Z,11.32
2022-08-20T00:23:26.248Z,10.05
2022-08-20T00:28:28.728Z,12.05
2022-08-20T00:33:34.961Z,11.82
2022-08-20T00:38:39.952Z,13.32
2022-08-20T00:43:45.042Z,10.52
2022-08-20T00:48:50.586Z,10.82
2022-08-20T00:53:55.977Z,12.40
2022-08-20T00:58:58.684Z,11.20
2022-08-20T01:04:01.266Z,13.77
2022-08-20T01:09:06.143Z,13.57
2022-08-20T01:14:36.081Z,13.18
2022-08-20T01:19:42.744Z,13.07
2022-08-20T01:24:47.554Z,14.93
2022-08-20T01:29:52.634Z,16.67
2022-08-20T01:34:55.216Z,15.43
2022-08-20T01:45:04.355Z,14.55
2022-08-20T01:50:13.393Z,17.80
2022-08-20T01:55:16.032Z,16.98
2022-08-20T02:00:21.926Z,15.80
2022-08-20T02:05:24.953Z,17.33
2022-08-20T02:10:33.292Z,16.58
2022-08-20T02:15:39.772Z,19.38
2022-08-20T02:20:46.555Z,19.77
2022-08-20T02:25:49.290Z,19.23
2022-08-20T02:30:55.486Z,19.45
2022-08-20T02:35:58.817Z,16.05
2022-08-20T02:41:02.058Z,25.80
2022-08-20T02:46:06.942Z,21.40
2022-08-20T02:51:10.110Z,17.85
2022-08-20T02:56:13.229Z,18.87
2022-08-20T03:01:18.917Z,17.52
2022-08-20T03:06:21.994Z,19.98
2022-08-20T03:11:24.589Z,22.17
2022-08-20T03:16:28.547Z,21.00
2022-08-20T03:26:33.509Z,18.35
2022-08-20T03:31:37.588Z,20.33
2022-08-20T03:41:42.498Z,20.45
2022-08-20T03:46:46.341Z,17.38
2022-08-20T03:51:57.781Z,18.95
2022-08-20T03:57:02.677Z,22.02
2022-08-20T04:02:07.763Z,20.63
2022-08-20T04:12:14.902Z,21.83
2022-08-20T04:17:20.649Z,25.40
2022-08-20T04:22:25.111Z,24.60
2022-08-20T04:27:27.858Z,20.98
2022-08-20T04:32:31.870Z,20.92
2022-08-20T04:42:38.048Z,24.13
2022-08-20T04:47:43.114Z,20.65
2022-08-20T04:52:46.705Z,21.67
2022-08-20T04:57:49.456Z,21.52
2022-08-20T05:02:53.229Z,20.20
2022-08-20T05:07:56.938Z,22.00
2022-08-20T05:12:59.500Z,21.88
2022-08-20T05:18:05.698Z,19.67
2022-08-20T05:23:10.219Z,17.60
2022-08-20T05:28:17.694Z,19.05
2022-08-20T05:33:23.498Z,18.38
2022-08-20T05:38:31.078Z,19.08
2022-08-20T05:43:34.027Z,20.58
2022-08-20T05:48:37.834Z,19.15
2022-08-20T05:53:41.602Z,21.08
2022-08-20T05:58:44.055Z,19.75
2022-08-20T06:04:06.008Z,19.40
2022-08-20T06:09:08.849Z,17.02
2022-08-20T06:14:11.382Z,18.35
2022-08-20T06:19:15.450Z,16.77
2022-08-20T06:24:27.623Z,19.08
2022-08-20T06:29:33.247Z,19.45
2022-08-20T06:34:37.219Z,20.20
2022-08-20T06:44:42.155Z,19.80
2022-08-20T06:49:47.461Z,20.50
2022-08-20T06:54:50.081Z,19.90
2022-08-20T06:59:55.642Z,18.27
2022-08-20T07:04:59.605Z,14.57
2022-08-20T07:15:05.033Z,13.43
2022-08-20T07:20:13.183Z,14.20
2022-08-20T07:25:19.400Z,17.70
2022-08-20T07:30:56.895Z,16.45
2022-08-20T07:36:04.504Z,17.13
2022-08-20T07:41:49.048Z,13.88
2022-08-20T07:47:30.782Z,16.40
2022-08-20T07:52:57.186Z,16.33
2022-08-20T07:58:19.141Z,14.48
2022-08-20T08:03:39.449Z,16.27
2022-08-20T08:09:11.947Z,16.55
2022-08-20T08:14:14.922Z,15.57
2022-08-20T08:19:19.713Z,15.17
2022-08-20T08:24:28.171Z,14.35
2022-08-20T08:29:31.074Z,14.65
2022-08-20T08:34:35.998Z,12.55
2022-08-20T08:39:40.052Z,15.13
2022-08-20T08:44:42.990Z,14.85
2022-08-20T08:49:47.453Z,14.52
2022-08-20T08:54:55.406Z,15.05
2022-08-20T09:00:04.848Z,14.65
2022-08-20T09:05:15.654Z,14.48
2022-08-20T09:10:23.279Z,16.48
2022-08-20T09:15:26.002Z,14.95
2022-08-20T09:20:28.838Z,15.60
2022-08-20T09:25:32.835Z,13.77
2022-08-20T09:30:35.350Z,16.08
2022-08-20T09:35:40.210Z,14.55
2022-08-20T09:40:44.505Z,13.20
2022-08-20T09:45:47.017Z,14.40
2022-08-20T09:50:50.862Z,16.15
2022-08-20T09:55:56.701Z,14.20
2022-08-20T10:01:00.326Z,14.13
2022-08-20T10:06:03.073Z,13.57
2022-08-20T10:11:07.125Z,16.10
2022-08-20T10:16:09.714Z,16.42
2022-08-20T10:21:13.251Z,15.05
2022-08-20T10:26:17.412Z,17.50
2022-08-20T10:31:19.937Z,14.60
2022-08-20T10:36:22.392Z,13.80
2022-08-20T10:41:26.230Z,13.70
2022-08-20T10:46:28.869Z,13.73
2022-08-20T10:51:32.602Z,11.50
2022-08-20T10:56:36.982Z,12.35
2022-08-20T11:01:39.691Z,14.13
2022-08-20T11:06:42.425Z,11.37
2022-08-20T11:11:46.216Z,13.65
2022-08-20T11:16:48.748Z,11.48
2022-08-20T11:21:51.249Z,9.65
2022-08-20T11:26:55.276Z,10.32
2022-08-20T11:31:57.772Z,12.23
2022-08-20T11:37:00.478Z,10.40
2022-08-20T11:42:04.594Z,12.43
2022-08-20T11:47:08.792Z,9.32
2022-08-20T11:52:11.307Z,9.63
2022-08-20T11:57:21.320Z,8.82
2022-08-20T12:02:23.954Z,8.25
2022-08-20T12:07:28.413Z,8.50
2022-08-20T12:12:32.331Z,8.20
2022-08-20T12:17:35.623Z,11.65
2022-08-20T12:22:38.254Z,7.95
2022-08-20T12:27:42.594Z,9.18
2022-08-20T12:32:45.669Z,8.35
2022-08-20T12:37:48.529Z,8.65
2022-08-20T12:42:55.593Z,8.60
2022-08-20T12:48:05.964Z,9.43
2022-08-20T12:53:09.307Z,7.95
2022-08-20T12:58:13.674Z,10.50
2022-08-20T13:03:16.473Z,9.77
2022-08-20T13:08:19.449Z,10.20
2022-08-20T13:13:23.665Z,11.07
2022-08-20T13:18:26.151Z,11.55
2022-08-20T13:23:28.717Z,9.85
2022-08-20T13:28:32.914Z,8.50
2022-08-20T13:33:35.443Z,9.95
2022-08-20T13:38:37.938Z,9.15
2022-08-20T13:43:41.762Z,9.13
2022-08-20T13:48:44.558Z,9.32
2022-08-20T13:53:47.054Z,10.83
2022-08-20T13:58:51.235Z,8.93
2022-08-20T14:03:55.651Z,9.55
2022-08-20T14:08:58.766Z,9.23
2022-08-20T14:14:02.845Z,9.87
2022-08-20T14:19:05.536Z,9.00
2022-08-20T14:24:08.563Z,11.00
2022-08-20T14:29:12.385Z,11.68
2022-08-20T14:34:15.142Z,10.50
2022-08-20T14:39:20.412Z,11.50
2022-08-20T14:44:24.514Z,11.95
2022-08-20T14:49:27.036Z,8.68
2022-08-20T14:54:29.535Z,10.52
2022-08-20T14:59:34.010Z,10.38
2022-08-20T15:04:37.623Z,10.40
2022-08-20T15:09:40.172Z,9.90
2022-08-20T15:14:44.036Z,10.05
2022-08-20T15:19:50.995Z,10.68
2022-08-20T15:24:55.611Z,8.40
2022-08-20T15:30:01.826Z,9.57
2022-08-20T15:35:05.859Z,10.75
2022-08-20T15:40:10.251Z,10.80
2022-08-20T15:45:22.053Z,9.70
2022-08-20T15:50:42.011Z,9.05
2022-08-20T15:55:54.765Z,9.13
2022-08-20T16:01:23.747Z,8.82
2022-08-20T16:06:31.450Z,9.45
2022-08-20T16:11:45.591Z,9.20
2022-08-20T16:16:56.720Z,9.05
2022-08-20T16:22:06.776Z,7.95
2022-08-20T16:27:15.321Z,8.95
2022-08-20T16:32:33.027Z,9.20
2022-08-20T16:37:42.303Z,9.55
2022-08-20T16:42:48.034Z,15.35
2022-08-20T16:47:53.620Z,26.00
2022-08-20T16:52:56.384Z,15.35
2022-08-20T16:57:59.469Z,15.53
2022-08-20T17:03:06.464Z,14.87
2022-08-20T17:08:09.541Z,15.05
2022-08-20T17:13:23.851Z,14.10
2022-08-20T17:18:35.163Z,15.35
2022-08-20T17:23:55.232Z,17.92
2022-08-20T17:29:01.604Z,17.52
2022-08-20T17:34:06.029Z,16.38
2022-08-20T17:39:19.100Z,18.90
2022-08-20T17:44:24.278Z,18.42
2022-08-20T17:49:35.260Z,18.00
2022-08-20T17:54:42.167Z,18.58
2022-08-20T18:00:01.940Z,18.10
2022-08-20T18:05:20.431Z,18.92
2022-08-20T18:10:27.081Z,20.38
2022-08-20T18:15:32.744Z,17.88
2022-08-20T18:21:13.318Z,21.83
2022-08-20T18:26:20.693Z,19.65
2022-08-20T18:31:30.031Z,19.77
2022-08-20T18:36:34.414Z,23.58
2022-08-20T18:41:39.818Z,21.67
2022-08-20T18:46:54.048Z,22.00
2022-08-20T18:51:59.612Z,24.15
2022-08-20T18:57:07.349Z,23.48
2022-08-20T19:02:23.593Z,28.17
2022-08-20T19:07:47.973Z,27.70
2022-08-20T19:13:16.293Z,27.67
2022-08-20T19:18:25.648Z,31.42
2022-08-20T19:23:34.138Z,27.98
2022-08-20T19:28:44.578Z,26.90
2022-08-20T19:33:47.740Z,26.30
2022-08-20T19:38:57.712Z,27.17
2022-08-20T19:44:01.812Z,26.40
2022-08-20T19:49:19.207Z,24.13
2022-08-20T19:54:25.426Z,28.50
2022-08-20T19:59:28.356Z,25.73
2022-08-20T20:04:39.989Z,29.90
2022-08-20T20:09:46.206Z,29.85
2022-08-20T20:14:52.187Z,26.33
2022-08-20T20:19:59.199Z,25.95
2022-08-20T20:25:07.752Z,28.45
2022-08-20T20:30:13.781Z,28.63
2022-08-20T20:35:27.174Z,27.67
2022-08-20T20:40:36.123Z,28.60
2022-08-20T20:45:44.681Z,31.17
2022-08-20T20:50:48.466Z,30.10
2022-08-20T20:55:57.345Z,26.58
2022-08-20T21:00:59.880Z,27.13
2022-08-20T21:06:04.054Z,29.52
2022-08-20T21:11:07.984Z,26.50
2022-08-20T21:21:16.036Z,26.90
2022-08-20T21:26:19.989Z,27.90
2022-08-20T21:36:25.140Z,29.73
2022-08-20T21:41:29.960Z,30.38
2022-08-20T21:46:32.809Z,32.15
2022-08-20T21:51:36.048Z,33.85
2022-08-20T21:56:40.219Z,32.83
2022-08-20T22:01:43.266Z,25.58
2022-08-20T22:06:47.209Z,27.47
2022-08-20T22:11:54.574Z,30.33
2022-08-20T22:16:58.370Z,31.10
2022-08-20T22:22:01.288Z,27.00
2022-08-20T22:27:06.118Z,28.02
2022-08-20T22:32:08.698Z,29.55
2022-08-20T22:37:14.071Z,25.95
2022-08-20T22:42:18.297Z,26.70
2022-08-20T22:47:25.255Z,29.27
2022-08-20T22:52:27.966Z,26.35
2022-08-20T22:57:31.910Z,29.13
2022-08-20T23:02:37.144Z,25.95
2022-08-20T23:07:39.661Z,28.98
2022-08-20T23:12:43.530Z,29.42
2022-08-20T23:17:46.667Z,26.75
2022-08-20T23:22:49.137Z,25.50
2022-08-20T23:27:55.335Z,28.58
2022-08-20T23:32:58.102Z,28.83
2022-08-20T23:38:04.561Z,28.05
2022-08-20T23:43:08.446Z,25.95
2022-08-20T23:48:10.966Z,25.30
2022-08-20T23:53:13.502Z,26.40
2022-08-20T23:58:17.445Z,27.05
